sensor_id;sensor_type;location;lat;lon;timestamp;temperature;humidity
33328;DHT22;19692;52.998;9.116;2023-05-14T00:01:16;13.10;99.90
33328;DHT22;19692;52.998;9.116;2023-05-14T00:03:42;13.00;99.90
33328;DHT22;19692;52.998;9.116;2023-05-14T00:06:08;12.90;99.90
33328;DHT22;19692;52.998;9.116;2023-05-14T00:08:35;12.90;99.90
33328;DHT22;19692;52.998;9.116;2023-05-14T00:11:00;12.90;99.90
33328;DHT22;19692;52.998;9.116;2023-05-14T00:13:26;12.80;99.90
33328;DHT22;19692;52.998;9.116;2023-05-14T00:15:52;12.80;99.90
33328;DHT22;19692;52.998;9.116;2023-05-14T00:18:18;12.90;99.90
33328;DHT22;19692;52.998;9.116;2023-05-14T00:20:43;12.80;99.90
33328;DHT22;19692;52.998;9.116;2023-05-14T00:23:09;12.80;99.90
33328;DHT22;19692;52.998;9.116;2023-05-14T00:25:35;12.80;99.90
33328;DHT22;19692;52.998;9.116;2023-05-14T00:28:02;12.80;99.90
33328;DHT22;19692;52.998;9.116;2023-05-14T00:30:28;12.70;99.90
33328;DHT22;19692;52.998;9.116;2023-05-14T00:32:54;12.70;99.90
33328;DHT22;19692;52.998;9.116;2023-05-14T00:35:19;12.70;99.90
33328;DHT22;19692;52.998;9.116;2023-05-14T00:37:46;12.50;99.90
33328;DHT22;19692;52.998;9.116;2023-05-14T00:40:12;12.50;99.90
33328;DHT22;19692;52.998;9.116;2023-05-14T00:42:41;12.40;99.90
33328;DHT22;19692;52.998;9.116;2023-05-14T00:45:07;12.40;99.90
33328;DHT22;19692;52.998;9.116;2023-05-14T00:47:33;12.40;99.90
33328;DHT22;19692;52.998;9.116;2023-05-14T00:50:00;12.30;99.90
33328;DHT22;19692;52.998;9.116;2023-05-14T00:52:26;12.10;99.90
33328;DHT22;19692;52.998;9.116;2023-05-14T00:54:53;12.00;99.90
33328;DHT22;19692;52.998;9.116;2023-05-14T00:57:19;11.80;99.90
33328;DHT22;19692;52.998;9.116;2023-05-14T00:59:46;11.70;99.90
33328;DHT22;19692;52.998;9.116;2023-05-14T01:02:11;11.60;99.90
33328;DHT22;19692;52.998;9.116;2023-05-14T01:04:37;11.50;99.90
33328;DHT22;19692;52.998;9.116;2023-05-14T01:09:54;11.50;99.90
33328;DHT22;19692;52.998;9.116;2023-05-14T01:12:51;11.50;99.90
33328;DHT22;19692;52.998;9.116;2023-05-14T01:15:27;11.40;99.90
33328;DHT22;19692;52.998;9.116;2023-05-14T01:18:02;11.30;99.90
33328;DHT22;19692;52.998;9.116;2023-05-14T01:20:35;11.30;99.90
33328;DHT22;19692;52.998;9.116;2023-05-14T01:23:01;11.20;99.90
33328;DHT22;19692;52.998;9.116;2023-05-14T01:25:28;11.10;99.90
33328;DHT22;19692;52.998;9.116;2023-05-14T01:28:17;11.10;99.90
33328;DHT22;19692;52.998;9.116;2023-05-14T01:31:06;11.10;99.90
33328;DHT22;19692;52.998;9.116;2023-05-14T01:33:32;11.10;99.90
33328;DHT22;19692;52.998;9.116;2023-05-14T01:36:00;11.10;99.90
33328;DHT22;19692;52.998;9.116;2023-05-14T01:38:27;11.10;99.90
33328;DHT22;19692;52.998;9.116;2023-05-14T01:40:58;11.10;99.90
33328;DHT22;19692;52.998;9.116;2023-05-14T01:43:26;11.10;99.90
33328;DHT22;19692;52.998;9.116;2023-05-14T01:45:52;11.20;99.90
33328;DHT22;19692;52.998;9.116;2023-05-14T01:48:19;11.10;99.90
33328;DHT22;19692;52.998;9.116;2023-05-14T01:50:45;11.00;99.90
33328;DHT22;19692;52.998;9.116;2023-05-14T01:53:11;10.90;99.90
33328;DHT22;19692;52.998;9.116;2023-05-14T01:55:37;10.80;99.90
33328;DHT22;19692;52.998;9.116;2023-05-14T01:58:03;10.80;99.90
33328;DHT22;19692;52.998;9.116;2023-05-14T02:00:29;10.70;99.90
33328;DHT22;19692;52.998;9.116;2023-05-14T02:02:54;10.70;99.90
33328;DHT22;19692;52.998;9.116;2023-05-14T02:05:20;10.90;99.90
33328;DHT22;19692;52.998;9.116;2023-05-14T02:07:46;10.80;99.90
33328;DHT22;19692;52.998;9.116;2023-05-14T02:10:12;10.80;99.90
33328;DHT22;19692;52.998;9.116;2023-05-14T02:12:38;10.80;99.90
33328;DHT22;19692;52.998;9.116;2023-05-14T02:15:04;10.70;99.90
33328;DHT22;19692;52.998;9.116;2023-05-14T02:17:30;10.60;99.90
33328;DHT22;19692;52.998;9.116;2023-05-14T02:19:56;10.50;99.90
33328;DHT22;19692;52.998;9.116;2023-05-14T02:22:21;10.40;99.90
33328;DHT22;19692;52.998;9.116;2023-05-14T02:24:47;10.40;99.90
33328;DHT22;19692;52.998;9.116;2023-05-14T02:27:14;10.30;99.90
33328;DHT22;19692;52.998;9.116;2023-05-14T02:29:39;10.20;99.90
33328;DHT22;19692;52.998;9.116;2023-05-14T02:32:05;10.10;99.90
33328;DHT22;19692;52.998;9.116;2023-05-14T02:34:31;10.00;99.90
33328;DHT22;19692;52.998;9.116;2023-05-14T02:36:58;9.90;99.90
33328;DHT22;19692;52.998;9.116;2023-05-14T02:39:24;9.90;99.90
33328;DHT22;19692;52.998;9.116;2023-05-14T02:41:50;9.80;99.90
33328;DHT22;19692;52.998;9.116;2023-05-14T02:44:16;9.80;99.90
33328;DHT22;19692;52.998;9.116;2023-05-14T02:46:42;9.60;99.90
33328;DHT22;19692;52.998;9.116;2023-05-14T02:49:08;9.50;99.90
33328;DHT22;19692;52.998;9.116;2023-05-14T02:51:33;9.50;99.90
33328;DHT22;19692;52.998;9.116;2023-05-14T02:53:59;9.50;99.90
33328;DHT22;19692;52.998;9.116;2023-05-14T02:56:25;9.60;99.90
33328;DHT22;19692;52.998;9.116;2023-05-14T02:58:51;9.60;99.90
33328;DHT22;19692;52.998;9.116;2023-05-14T03:01:16;9.60;99.90
33328;DHT22;19692;52.998;9.116;2023-05-14T03:03:43;9.60;99.90
33328;DHT22;19692;52.998;9.116;2023-05-14T03:06:09;9.50;99.90
33328;DHT22;19692;52.998;9.116;2023-05-14T03:08:35;9.50;99.90
33328;DHT22;19692;52.998;9.116;2023-05-14T03:11:01;9.50;99.90
33328;DHT22;19692;52.998;9.116;2023-05-14T03:13:26;9.40;99.90
33328;DHT22;19692;52.998;9.116;2023-05-14T03:15:52;9.50;99.90
33328;DHT22;19692;52.998;9.116;2023-05-14T03:18:21;9.50;99.90
33328;DHT22;19692;52.998;9.116;2023-05-14T03:20:47;9.50;99.90
33328;DHT22;19692;52.998;9.116;2023-05-14T03:23:13;9.60;99.90
33328;DHT22;19692;52.998;9.116;2023-05-14T03:25:39;9.60;99.90
33328;DHT22;19692;52.998;9.116;2023-05-14T03:28:05;9.50;99.90
33328;DHT22;19692;52.998;9.116;2023-05-14T03:30:31;9.50;99.90
33328;DHT22;19692;52.998;9.116;2023-05-14T03:32:58;9.50;99.90
33328;DHT22;19692;52.998;9.116;2023-05-14T03:35:23;9.50;99.90
33328;DHT22;19692;52.998;9.116;2023-05-14T03:37:49;9.50;99.90
33328;DHT22;19692;52.998;9.116;2023-05-14T03:40:17;9.60;99.90
33328;DHT22;19692;52.998;9.116;2023-05-14T03:42:43;9.70;99.90
33328;DHT22;19692;52.998;9.116;2023-05-14T03:45:09;9.70;99.90
33328;DHT22;19692;52.998;9.116;2023-05-14T03:47:35;9.80;99.90
33328;DHT22;19692;52.998;9.116;2023-05-14T03:50:01;9.90;99.90
33328;DHT22;19692;52.998;9.116;2023-05-14T03:52:26;10.00;99.90
33328;DHT22;19692;52.998;9.116;2023-05-14T03:54:52;10.10;99.90
33328;DHT22;19692;52.998;9.116;2023-05-14T03:57:18;10.20;99.90
33328;DHT22;19692;52.998;9.116;2023-05-14T03:59:44;10.30;99.90
33328;DHT22;19692;52.998;9.116;2023-05-14T04:02:09;10.30;99.90
33328;DHT22;19692;52.998;9.116;2023-05-14T04:04:35;10.40;99.90
33328;DHT22;19692;52.998;9.116;2023-05-14T04:07:01;10.50;99.90
33328;DHT22;19692;52.998;9.116;2023-05-14T04:09:27;10.60;99.90
33328;DHT22;19692;52.998;9.116;2023-05-14T04:11:52;10.70;99.90
33328;DHT22;19692;52.998;9.116;2023-05-14T04:14:18;10.80;99.90
33328;DHT22;19692;52.998;9.116;2023-05-14T04:16:44;10.90;99.90
33328;DHT22;19692;52.998;9.116;2023-05-14T04:19:10;10.90;99.90
33328;DHT22;19692;52.998;9.116;2023-05-14T04:21:35;10.90;99.90
33328;DHT22;19692;52.998;9.116;2023-05-14T04:24:01;11.00;99.90
33328;DHT22;19692;52.998;9.116;2023-05-14T04:26:27;10.90;99.90
33328;DHT22;19692;52.998;9.116;2023-05-14T04:28:53;10.90;99.90
33328;DHT22;19692;52.998;9.116;2023-05-14T04:31:18;11.00;99.90
33328;DHT22;19692;52.998;9.116;2023-05-14T04:33:44;11.10;99.90
33328;DHT22;19692;52.998;9.116;2023-05-14T04:36:10;11.20;99.90
33328;DHT22;19692;52.998;9.116;2023-05-14T04:38:35;11.40;99.90
33328;DHT22;19692;52.998;9.116;2023-05-14T04:41:01;11.40;99.90
33328;DHT22;19692;52.998;9.116;2023-05-14T04:43:27;11.60;99.90
33328;DHT22;19692;52.998;9.116;2023-05-14T04:45:53;11.70;99.90
33328;DHT22;19692;52.998;9.116;2023-05-14T04:48:18;11.90;99.90
33328;DHT22;19692;52.998;9.116;2023-05-14T04:50:45;12.10;99.90
33328;DHT22;19692;52.998;9.116;2023-05-14T04:53:10;12.20;99.90
33328;DHT22;19692;52.998;9.116;2023-05-14T04:55:36;12.40;99.90
33328;DHT22;19692;52.998;9.116;2023-05-14T04:58:02;12.60;99.90
33328;DHT22;19692;52.998;9.116;2023-05-14T05:00:28;12.70;99.90
33328;DHT22;19692;52.998;9.116;2023-05-14T05:02:54;12.90;99.90
33328;DHT22;19692;52.998;9.116;2023-05-14T05:05:20;13.10;99.90
33328;DHT22;19692;52.998;9.116;2023-05-14T05:07:46;13.20;99.90
33328;DHT22;19692;52.998;9.116;2023-05-14T05:10:12;13.30;99.90
33328;DHT22;19692;52.998;9.116;2023-05-14T05:12:38;13.40;99.90
33328;DHT22;19692;52.998;9.116;2023-05-14T05:15:04;13.50;99.90
33328;DHT22;19692;52.998;9.116;2023-05-14T05:17:30;13.70;99.90
33328;DHT22;19692;52.998;9.116;2023-05-14T05:19:56;13.80;99.90
33328;DHT22;19692;52.998;9.116;2023-05-14T05:22:22;14.00;99.90
33328;DHT22;19692;52.998;9.116;2023-05-14T05:24:48;14.10;99.90
33328;DHT22;19692;52.998;9.116;2023-05-14T05:27:14;14.10;99.90
33328;DHT22;19692;52.998;9.116;2023-05-14T05:29:40;14.10;99.90
33328;DHT22;19692;52.998;9.116;2023-05-14T05:32:06;14.20;99.90
33328;DHT22;19692;52.998;9.116;2023-05-14T05:34:33;14.20;99.90
33328;DHT22;19692;52.998;9.116;2023-05-14T05:36:59;14.30;99.90
33328;DHT22;19692;52.998;9.116;2023-05-14T05:39:25;14.40;99.90
33328;DHT22;19692;52.998;9.116;2023-05-14T05:41:50;14.50;99.90
33328;DHT22;19692;52.998;9.116;2023-05-14T05:44:16;14.60;99.90
33328;DHT22;19692;52.998;9.116;2023-05-14T05:46:42;14.80;99.90
33328;DHT22;19692;52.998;9.116;2023-05-14T05:49:07;15.00;99.90
33328;DHT22;19692;52.998;9.116;2023-05-14T05:51:33;15.10;99.90
33328;DHT22;19692;52.998;9.116;2023-05-14T05:53:59;15.10;99.90
33328;DHT22;19692;52.998;9.116;2023-05-14T05:56:25;15.10;99.90
33328;DHT22;19692;52.998;9.116;2023-05-14T05:58:51;15.10;99.90
33328;DHT22;19692;52.998;9.116;2023-05-14T06:01:17;15.10;99.90
33328;DHT22;19692;52.998;9.116;2023-05-14T06:03:42;14.90;99.90
33328;DHT22;19692;52.998;9.116;2023-05-14T06:06:08;15.10;99.90
33328;DHT22;19692;52.998;9.116;2023-05-14T06:08:34;15.10;99.90
33328;DHT22;19692;52.998;9.116;2023-05-14T06:11:00;15.20;99.90
33328;DHT22;19692;52.998;9.116;2023-05-14T06:13:25;15.30;99.90
33328;DHT22;19692;52.998;9.116;2023-05-14T06:15:51;15.40;99.90
33328;DHT22;19692;52.998;9.116;2023-05-14T06:18:17;15.50;99.90
33328;DHT22;19692;52.998;9.116;2023-05-14T06:20:43;15.60;99.90
33328;DHT22;19692;52.998;9.116;2023-05-14T06:23:09;15.90;99.90
33328;DHT22;19692;52.998;9.116;2023-05-14T06:25:36;16.10;99.90
33328;DHT22;19692;52.998;9.116;2023-05-14T06:28:02;16.30;99.90
33328;DHT22;19692;52.998;9.116;2023-05-14T06:30:27;16.50;99.90
33328;DHT22;19692;52.998;9.116;2023-05-14T06:32:53;16.80;99.90
33328;DHT22;19692;52.998;9.116;2023-05-14T06:35:19;16.80;99.90
33328;DHT22;19692;52.998;9.116;2023-05-14T06:37:45;17.00;99.90
33328;DHT22;19692;52.998;9.116;2023-05-14T06:40:11;17.20;99.90
33328;DHT22;19692;52.998;9.116;2023-05-14T06:42:40;17.30;99.90
33328;DHT22;19692;52.998;9.116;2023-05-14T06:45:06;17.40;99.90
33328;DHT22;19692;52.998;9.116;2023-05-14T06:47:32;17.40;99.90
33328;DHT22;19692;52.998;9.116;2023-05-14T06:49:58;17.40;99.90
33328;DHT22;19692;52.998;9.116;2023-05-14T06:52:25;17.30;99.90
33328;DHT22;19692;52.998;9.116;2023-05-14T06:54:51;17.40;99.90
33328;DHT22;19692;52.998;9.116;2023-05-14T06:57:16;17.60;99.90
33328;DHT22;19692;52.998;9.116;2023-05-14T06:59:42;17.70;99.90
33328;DHT22;19692;52.998;9.116;2023-05-14T07:02:08;17.80;99.90
33328;DHT22;19692;52.998;9.116;2023-05-14T07:04:34;18.00;99.90
33328;DHT22;19692;52.998;9.116;2023-05-14T07:07:00;18.20;99.90
33328;DHT22;19692;52.998;9.116;2023-05-14T07:09:26;18.10;99.90
33328;DHT22;19692;52.998;9.116;2023-05-14T07:11:52;18.00;99.90
33328;DHT22;19692;52.998;9.116;2023-05-14T07:14:17;18.20;99.90
33328;DHT22;19692;52.998;9.116;2023-05-14T07:16:43;18.60;99.90
33328;DHT22;19692;52.998;9.116;2023-05-14T07:19:11;18.60;99.90
33328;DHT22;19692;52.998;9.116;2023-05-14T07:21:37;19.10;99.90
33328;DHT22;19692;52.998;9.116;2023-05-14T07:24:03;19.00;99.90
33328;DHT22;19692;52.998;9.116;2023-05-14T07:26:29;19.30;99.90
33328;DHT22;19692;52.998;9.116;2023-05-14T07:28:55;19.20;99.90
33328;DHT22;19692;52.998;9.116;2023-05-14T07:31:21;18.90;99.90
33328;DHT22;19692;52.998;9.116;2023-05-14T07:33:47;18.80;99.90
33328;DHT22;19692;52.998;9.116;2023-05-14T07:36:13;18.80;99.90
33328;DHT22;19692;52.998;9.116;2023-05-14T07:38:39;19.10;99.90
33328;DHT22;19692;52.998;9.116;2023-05-14T07:41:04;19.20;99.90
33328;DHT22;19692;52.998;9.116;2023-05-14T07:43:30;19.60;99.90
33328;DHT22;19692;52.998;9.116;2023-05-14T07:45:56;19.90;99.90
33328;DHT22;19692;52.998;9.116;2023-05-14T07:48:22;20.10;99.90
33328;DHT22;19692;52.998;9.116;2023-05-14T07:50:48;20.20;99.90
33328;DHT22;19692;52.998;9.116;2023-05-14T07:53:13;20.30;99.90
33328;DHT22;19692;52.998;9.116;2023-05-14T07:55:39;20.30;99.90
33328;DHT22;19692;52.998;9.116;2023-05-14T07:58:06;20.40;99.90
33328;DHT22;19692;52.998;9.116;2023-05-14T08:00:32;20.30;99.90
33328;DHT22;19692;52.998;9.116;2023-05-14T08:02:57;20.30;99.90
33328;DHT22;19692;52.998;9.116;2023-05-14T08:05:23;19.90;99.90
33328;DHT22;19692;52.998;9.116;2023-05-14T08:07:49;19.90;99.90
33328;DHT22;19692;52.998;9.116;2023-05-14T08:10:15;20.00;99.90
33328;DHT22;19692;52.998;9.116;2023-05-14T08:12:41;20.20;99.90
33328;DHT22;19692;52.998;9.116;2023-05-14T08:15:07;20.40;99.90
33328;DHT22;19692;52.998;9.116;2023-05-14T08:17:34;20.50;99.90
33328;DHT22;19692;52.998;9.116;2023-05-14T08:19:59;20.50;99.90
33328;DHT22;19692;52.998;9.116;2023-05-14T08:22:26;20.60;99.90
33328;DHT22;19692;52.998;9.116;2023-05-14T08:24:51;20.50;99.90
33328;DHT22;19692;52.998;9.116;2023-05-14T08:27:17;20.30;99.90
33328;DHT22;19692;52.998;9.116;2023-05-14T08:29:43;20.20;99.90
33328;DHT22;19692;52.998;9.116;2023-05-14T08:32:08;20.20;99.90
33328;DHT22;19692;52.998;9.116;2023-05-14T08:34:34;20.10;99.90
33328;DHT22;19692;52.998;9.116;2023-05-14T08:37:00;20.20;99.90
33328;DHT22;19692;52.998;9.116;2023-05-14T08:39:28;20.60;99.90
33328;DHT22;19692;52.998;9.116;2023-05-14T08:41:56;20.80;99.90
33328;DHT22;19692;52.998;9.116;2023-05-14T08:44:37;21.20;99.90
33328;DHT22;19692;52.998;9.116;2023-05-14T08:47:05;21.30;99.90
33328;DHT22;19692;52.998;9.116;2023-05-14T08:49:40;21.60;99.90
33328;DHT22;19692;52.998;9.116;2023-05-14T08:52:10;21.60;99.90
33328;DHT22;19692;52.998;9.116;2023-05-14T08:54:37;21.80;99.90
33328;DHT22;19692;52.998;9.116;2023-05-14T08:57:04;21.80;99.90
33328;DHT22;19692;52.998;9.116;2023-05-14T08:59:30;21.20;99.90
33328;DHT22;19692;52.998;9.116;2023-05-14T09:02:00;21.20;99.90
33328;DHT22;19692;52.998;9.116;2023-05-14T09:04:27;21.20;99.90
33328;DHT22;19692;52.998;9.116;2023-05-14T09:06:54;21.00;99.90
33328;DHT22;19692;52.998;9.116;2023-05-14T09:09:21;21.00;99.90
33328;DHT22;19692;52.998;9.116;2023-05-14T09:11:51;21.00;99.90
33328;DHT22;19692;52.998;9.116;2023-05-14T09:14:17;21.10;99.90
33328;DHT22;19692;52.998;9.116;2023-05-14T09:16:44;21.00;99.90
33328;DHT22;19692;52.998;9.116;2023-05-14T09:22:37;21.20;99.90
33328;DHT22;19692;52.998;9.116;2023-05-14T09:25:05;21.50;99.90
33328;DHT22;19692;52.998;9.116;2023-05-14T09:27:34;21.90;99.90
33328;DHT22;19692;52.998;9.116;2023-05-14T09:30:11;21.60;99.90
33328;DHT22;19692;52.998;9.116;2023-05-14T09:32:39;21.20;99.90
33328;DHT22;19692;52.998;9.116;2023-05-14T09:35:15;21.40;99.90
33328;DHT22;19692;52.998;9.116;2023-05-14T09:37:45;21.80;99.90
33328;DHT22;19692;52.998;9.116;2023-05-14T09:40:19;22.00;99.90
33328;DHT22;19692;52.998;9.116;2023-05-14T09:42:45;22.20;99.90
33328;DHT22;19692;52.998;9.116;2023-05-14T09:45:13;21.90;99.90
33328;DHT22;19692;52.998;9.116;2023-05-14T09:47:39;21.90;99.90
33328;DHT22;19692;52.998;9.116;2023-05-14T09:50:06;21.70;99.90
33328;DHT22;19692;52.998;9.116;2023-05-14T09:52:32;21.50;99.90
33328;DHT22;19692;52.998;9.116;2023-05-14T09:54:59;21.90;99.90
33328;DHT22;19692;52.998;9.116;2023-05-14T09:57:25;22.30;99.90
33328;DHT22;19692;52.998;9.116;2023-05-14T09:59:52;23.00;99.90
33328;DHT22;19692;52.998;9.116;2023-05-14T10:04:48;22.70;99.90
33328;DHT22;19692;52.998;9.116;2023-05-14T10:07:19;22.60;99.90
33328;DHT22;19692;52.998;9.116;2023-05-14T10:09:47;22.40;99.90
33328;DHT22;19692;52.998;9.116;2023-05-14T10:12:15;22.30;99.90
33328;DHT22;19692;52.998;9.116;2023-05-14T10:14:47;22.20;99.90
33328;DHT22;19692;52.998;9.116;2023-05-14T10:17:20;22.20;99.90
33328;DHT22;19692;52.998;9.116;2023-05-14T10:19:52;22.10;99.90
33328;DHT22;19692;52.998;9.116;2023-05-14T10:22:22;21.90;99.90
33328;DHT22;19692;52.998;9.116;2023-05-14T10:24:49;22.10;99.90
33328;DHT22;19692;52.998;9.116;2023-05-14T10:27:19;22.20;99.90
33328;DHT22;19692;52.998;9.116;2023-05-14T10:29:51;22.10;99.90
33328;DHT22;19692;52.998;9.116;2023-05-14T10:32:22;22.30;99.90
33328;DHT22;19692;52.998;9.116;2023-05-14T10:34:49;22.30;99.90
33328;DHT22;19692;52.998;9.116;2023-05-14T10:37:24;22.80;99.90
33328;DHT22;19692;52.998;9.116;2023-05-14T10:39:51;22.90;99.90
33328;DHT22;19692;52.998;9.116;2023-05-14T10:42:31;23.10;99.90
33328;DHT22;19692;52.998;9.116;2023-05-14T10:45:04;23.00;99.90
33328;DHT22;19692;52.998;9.116;2023-05-14T10:47:43;23.40;99.90
33328;DHT22;19692;52.998;9.116;2023-05-14T10:50:12;23.60;99.90
33328;DHT22;19692;52.998;9.116;2023-05-14T10:52:43;23.80;99.90
33328;DHT22;19692;52.998;9.116;2023-05-14T10:55:13;23.90;99.90
33328;DHT22;19692;52.998;9.116;2023-05-14T10:57:42;23.90;99.90
33328;DHT22;19692;52.998;9.116;2023-05-14T11:00:10;23.90;99.90
33328;DHT22;19692;52.998;9.116;2023-05-14T11:02:38;23.80;99.90
33328;DHT22;19692;52.998;9.116;2023-05-14T11:05:13;23.50;99.90
33328;DHT22;19692;52.998;9.116;2023-05-14T11:07:43;23.50;99.70
33328;DHT22;19692;52.998;9.116;2023-05-14T11:10:12;23.30;99.90
33328;DHT22;19692;52.998;9.116;2023-05-14T11:12:43;23.20;99.60
33328;DHT22;19692;52.998;9.116;2023-05-14T11:15:12;23.20;99.30
33328;DHT22;19692;52.998;9.116;2023-05-14T11:17:40;23.30;99.40
33328;DHT22;19692;52.998;9.116;2023-05-14T11:20:07;23.70;97.60
33328;DHT22;19692;52.998;9.116;2023-05-14T11:22:35;24.00;99.00
33328;DHT22;19692;52.998;9.116;2023-05-14T11:25:02;24.20;96.90
33328;DHT22;19692;52.998;9.116;2023-05-14T11:27:29;24.20;97.90
33328;DHT22;19692;52.998;9.116;2023-05-14T11:29:56;24.00;98.40
33328;DHT22;19692;52.998;9.116;2023-05-14T11:32:22;23.90;98.70
33328;DHT22;19692;52.998;9.116;2023-05-14T11:34:48;23.90;98.80
33328;DHT22;19692;52.998;9.116;2023-05-14T11:37:15;23.90;99.40
33328;DHT22;19692;52.998;9.116;2023-05-14T11:39:49;24.00;99.00
33328;DHT22;19692;52.998;9.116;2023-05-14T11:42:19;24.40;98.60
33328;DHT22;19692;52.998;9.116;2023-05-14T11:44:47;24.50;97.20
33328;DHT22;19692;52.998;9.116;2023-05-14T11:47:17;24.50;97.50
33328;DHT22;19692;52.998;9.116;2023-05-14T11:49:44;24.40;99.00
33328;DHT22;19692;52.998;9.116;2023-05-14T11:52:11;24.80;97.90
33328;DHT22;19692;52.998;9.116;2023-05-14T11:54:40;25.10;96.20
33328;DHT22;19692;52.998;9.116;2023-05-14T11:57:09;25.40;95.20
33328;DHT22;19692;52.998;9.116;2023-05-14T11:59:37;25.30;94.70
33328;DHT22;19692;52.998;9.116;2023-05-14T12:02:04;25.90;95.60
33328;DHT22;19692;52.998;9.116;2023-05-14T12:04:30;25.80;94.40
33328;DHT22;19692;52.998;9.116;2023-05-14T12:06:58;26.30;95.10
33328;DHT22;19692;52.998;9.116;2023-05-14T12:09:25;26.60;94.80
33328;DHT22;19692;52.998;9.116;2023-05-14T12:11:51;26.50;91.60
33328;DHT22;19692;52.998;9.116;2023-05-14T12:14:23;26.90;93.30
33328;DHT22;19692;52.998;9.116;2023-05-14T12:16:49;27.00;93.00
33328;DHT22;19692;52.998;9.116;2023-05-14T12:19:17;27.00;91.30
33328;DHT22;19692;52.998;9.116;2023-05-14T12:21:45;26.30;90.70
33328;DHT22;19692;52.998;9.116;2023-05-14T12:24:17;26.20;92.20
33328;DHT22;19692;52.998;9.116;2023-05-14T12:26:44;26.40;91.10
33328;DHT22;19692;52.998;9.116;2023-05-14T12:29:12;25.80;92.30
33328;DHT22;19692;52.998;9.116;2023-05-14T12:31:48;25.90;92.10
33328;DHT22;19692;52.998;9.116;2023-05-14T12:34:15;26.50;91.80
33328;DHT22;19692;52.998;9.116;2023-05-14T12:36:41;26.70;90.00
33328;DHT22;19692;52.998;9.116;2023-05-14T12:39:08;27.00;88.70
33328;DHT22;19692;52.998;9.116;2023-05-14T12:41:34;27.10;88.60
33328;DHT22;19692;52.998;9.116;2023-05-14T12:44:01;26.60;88.10
33328;DHT22;19692;52.998;9.116;2023-05-14T12:46:28;26.40;87.30
33328;DHT22;19692;52.998;9.116;2023-05-14T12:48:54;25.80;88.30
33328;DHT22;19692;52.998;9.116;2023-05-14T12:51:20;25.30;90.40
33328;DHT22;19692;52.998;9.116;2023-05-14T12:53:46;24.80;90.70
33328;DHT22;19692;52.998;9.116;2023-05-14T12:56:12;24.40;91.70
33328;DHT22;19692;52.998;9.116;2023-05-14T12:58:38;24.00;90.50
33328;DHT22;19692;52.998;9.116;2023-05-14T13:01:04;23.90;91.30
33328;DHT22;19692;52.998;9.116;2023-05-14T13:03:31;23.90;92.40
33328;DHT22;19692;52.998;9.116;2023-05-14T13:05:56;23.70;92.80
33328;DHT22;19692;52.998;9.116;2023-05-14T13:08:22;23.60;93.60
33328;DHT22;19692;52.998;9.116;2023-05-14T13:10:55;23.50;94.70
33328;DHT22;19692;52.998;9.116;2023-05-14T13:13:21;23.90;93.80
33328;DHT22;19692;52.998;9.116;2023-05-14T13:15:48;24.50;93.30
33328;DHT22;19692;52.998;9.116;2023-05-14T13:18:15;24.70;92.00
33328;DHT22;19692;52.998;9.116;2023-05-14T13:20:41;25.00;90.90
33328;DHT22;19692;52.998;9.116;2023-05-14T13:23:07;25.40;90.40
33328;DHT22;19692;52.998;9.116;2023-05-14T13:25:33;25.90;90.60
33328;DHT22;19692;52.998;9.116;2023-05-14T13:27:59;26.40;87.90
33328;DHT22;19692;52.998;9.116;2023-05-14T13:30:25;26.70;85.30
33328;DHT22;19692;52.998;9.116;2023-05-14T13:32:51;26.40;82.70
33328;DHT22;19692;52.998;9.116;2023-05-14T13:35:17;26.20;85.20
33328;DHT22;19692;52.998;9.116;2023-05-14T13:37:43;26.00;88.20
33328;DHT22;19692;52.998;9.116;2023-05-14T13:40:09;26.30;84.80
33328;DHT22;19692;52.998;9.116;2023-05-14T13:42:36;26.40;86.00
33328;DHT22;19692;52.998;9.116;2023-05-14T13:45:04;26.80;86.40
33328;DHT22;19692;52.998;9.116;2023-05-14T13:47:30;26.70;84.50
33328;DHT22;19692;52.998;9.116;2023-05-14T13:49:57;26.50;86.10
33328;DHT22;19692;52.998;9.116;2023-05-14T13:52:23;26.50;84.90
33328;DHT22;19692;52.998;9.116;2023-05-14T13:54:48;26.60;84.20
33328;DHT22;19692;52.998;9.116;2023-05-14T13:57:14;26.60;84.30
33328;DHT22;19692;52.998;9.116;2023-05-14T13:59:40;26.40;84.20
33328;DHT22;19692;52.998;9.116;2023-05-14T14:02:06;26.70;83.30
33328;DHT22;19692;52.998;9.116;2023-05-14T14:04:32;26.70;81.30
33328;DHT22;19692;52.998;9.116;2023-05-14T14:06:58;26.70;81.70
33328;DHT22;19692;52.998;9.116;2023-05-14T14:09:24;26.70;80.60
33328;DHT22;19692;52.998;9.116;2023-05-14T14:11:50;26.80;79.30
33328;DHT22;19692;52.998;9.116;2023-05-14T14:14:16;26.90;81.20
33328;DHT22;19692;52.998;9.116;2023-05-14T14:16:42;26.90;79.90
33328;DHT22;19692;52.998;9.116;2023-05-14T14:19:08;27.00;80.50
33328;DHT22;19692;52.998;9.116;2023-05-14T14:21:34;27.10;80.10
33328;DHT22;19692;52.998;9.116;2023-05-14T14:24:00;26.30;81.80
33328;DHT22;19692;52.998;9.116;2023-05-14T14:26:27;25.50;86.10
33328;DHT22;19692;52.998;9.116;2023-05-14T14:28:53;24.80;87.40
33328;DHT22;19692;52.998;9.116;2023-05-14T14:31:20;24.50;90.00
33328;DHT22;19692;52.998;9.116;2023-05-14T14:33:46;23.90;90.10
33328;DHT22;19692;52.998;9.116;2023-05-14T14:36:11;23.70;90.70
33328;DHT22;19692;52.998;9.116;2023-05-14T14:38:37;23.20;91.70
33328;DHT22;19692;52.998;9.116;2023-05-14T14:41:04;22.90;91.90
33328;DHT22;19692;52.998;9.116;2023-05-14T14:43:32;23.00;92.30
33328;DHT22;19692;52.998;9.116;2023-05-14T14:45:58;22.70;92.90
33328;DHT22;19692;52.998;9.116;2023-05-14T14:48:33;22.90;93.00
33328;DHT22;19692;52.998;9.116;2023-05-14T14:51:02;23.10;93.20
33328;DHT22;19692;52.998;9.116;2023-05-14T14:53:30;22.70;92.30
33328;DHT22;19692;52.998;9.116;2023-05-14T14:55:57;22.90;93.30
33328;DHT22;19692;52.998;9.116;2023-05-14T14:58:23;23.10;92.20
33328;DHT22;19692;52.998;9.116;2023-05-14T15:00:52;23.40;92.40
33328;DHT22;19692;52.998;9.116;2023-05-14T15:03:19;23.80;92.90
33328;DHT22;19692;52.998;9.116;2023-05-14T15:05:45;23.90;90.10
33328;DHT22;19692;52.998;9.116;2023-05-14T15:08:12;23.70;91.20
33328;DHT22;19692;52.998;9.116;2023-05-14T15:10:37;24.00;92.20
33328;DHT22;19692;52.998;9.116;2023-05-14T15:13:04;24.20;91.30
33328;DHT22;19692;52.998;9.116;2023-05-14T15:15:34;24.40;90.00
33328;DHT22;19692;52.998;9.116;2023-05-14T15:18:01;24.20;90.30
33328;DHT22;19692;52.998;9.116;2023-05-14T15:20:27;24.60;90.50
33328;DHT22;19692;52.998;9.116;2023-05-14T15:22:53;25.10;88.80
33328;DHT22;19692;52.998;9.116;2023-05-14T15:25:20;25.50;83.10
33328;DHT22;19692;52.998;9.116;2023-05-14T15:27:47;25.90;79.60
33328;DHT22;19692;52.998;9.116;2023-05-14T15:30:13;25.70;77.10
33328;DHT22;19692;52.998;9.116;2023-05-14T15:32:40;25.30;78.60
33328;DHT22;19692;52.998;9.116;2023-05-14T15:35:06;25.00;78.20
33328;DHT22;19692;52.998;9.116;2023-05-14T15:37:38;25.00;78.10
33328;DHT22;19692;52.998;9.116;2023-05-14T15:40:05;25.10;79.00